createdAt,value
2019-02-09T10:27:51.729Z,95556.726
2019-02-09T10:28:01.122Z,95559.968
2019-02-09T10:28:09.317Z,95556.945
2019-02-09T10:28:17.764Z,95559.164
2019-02-09T10:28:26.178Z,95564.585
2019-02-09T10:28:34.455Z,95560.14
2019-02-09T10:28:42.612Z,95556.39
2019-02-09T10:28:50.913Z,95560.46
2019-02-09T10:28:59.304Z,95565.531
2019-02-09T10:29:08.461Z,95564.195
2019-02-09T10:29:16.901Z,95562.781
2019-02-09T10:29:25.061Z,95561.359
2019-02-09T10:29:33.401Z,95560.765
2019-02-09T10:29:41.895Z,95563.343
2019-02-09T10:29:50.718Z,95561.921
2019-02-09T10:29:58.886Z,95561.328
2019-02-09T10:30:07.620Z,95559.851
2019-02-09T10:30:16.814Z,95570.289
2019-02-09T10:30:26.073Z,95569.515
2019-02-09T10:30:35.167Z,95571.312
2019-02-09T10:30:44.450Z,95568.664
2019-02-09T10:30:53.600Z,95561.734
2019-02-09T10:31:02.481Z,95570.64
2019-02-09T10:31:12.426Z,95570.937
2019-02-09T10:31:21.405Z,95568.437
2019-02-09T10:31:30.462Z,95569.257
2019-02-09T10:31:39.547Z,95559.781
2019-02-09T10:31:48.600Z,95559.468
2019-02-09T10:31:58.010Z,95563.968
2019-02-09T10:32:07.069Z,95564.828
2019-02-09T10:32:16.184Z,95573.32
2019-02-09T10:32:25.323Z,95560.335
2019-02-09T10:32:33.835Z,95550.515
2019-02-09T10:32:44.954Z,95556.429
2019-02-09T10:32:53.651Z,95556.703
2019-02-09T10:33:02.181Z,95559.445
2019-02-09T10:33:10.742Z,95558.187
2019-02-09T10:33:20.433Z,95562.703
2019-02-09T10:33:29.660Z,95565.695
2019-02-09T10:33:38.588Z,95567.234
2019-02-09T10:33:48.569Z,95564.398
2019-02-09T10:33:58.930Z,95563.312
2019-02-09T10:34:07.653Z,95564.234
2019-02-09T10:34:17.225Z,95563.421
2019-02-09T10:34:26.022Z,95563.234
2019-02-09T19:25:26.305Z,95753.125
2019-02-09T19:25:35.271Z,95751.867
2019-02-09T19:25:44.024Z,95753.539
2019-02-09T19:25:52.848Z,95752.445
2019-02-09T19:26:02.836Z,95749.554
2019-02-09T19:26:11.679Z,95746.718
2019-02-09T19:26:20.633Z,95738.757
2019-02-09T19:26:29.650Z,95741.609
2019-02-09T19:26:38.400Z,95745
2019-02-09T19:26:47.254Z,95744.062
2019-02-09T19:26:55.950Z,95745.429
2019-02-09T19:27:04.846Z,95745.476
2019-02-09T19:27:13.938Z,95741.632
2019-02-09T19:27:23.789Z,95745.437
2019-02-09T19:27:33.692Z,95744.664
2019-02-09T19:27:43.535Z,95744.875
2019-02-09T19:27:53.398Z,95742.765
2019-02-09T19:28:02.774Z,95741.562
2019-02-09T19:28:12.128Z,95742.593
2019-02-09T19:28:21.728Z,95744.531
2019-02-09T19:28:30.934Z,95746.804
2019-02-09T19:28:39.964Z,95744.773
2019-02-09T19:28:48.873Z,95742.906
2019-02-09T19:28:57.706Z,95740.046
2019-02-09T19:29:06.830Z,95740.875
2019-02-09T19:29:16.394Z,95745.718
2019-02-09T19:29:25.594Z,95742.437
2019-02-09T19:29:34.479Z,95745.203
2019-02-09T19:29:43.313Z,95741.843
2019-02-09T19:29:52.273Z,95739.734
2019-02-09T19:30:01.263Z,95743.32
2019-02-09T19:30:10.094Z,95738.562
2019-02-09T19:30:19.246Z,95739.218
2019-02-09T19:30:28.664Z,95740
2019-02-09T19:30:38.400Z,95740.25
2019-02-09T19:30:47.779Z,95737.625
2019-02-09T19:30:57.076Z,95737.992
2019-02-09T19:31:06.316Z,95736.828
2019-02-09T19:31:16.644Z,95736.531
2019-02-09T19:31:55.252Z,95737.828
2019-02-09T19:32:03.154Z,95733.828
2019-02-09T19:32:11.094Z,95733.445
2019-02-09T19:32:20.008Z,95735.929
2019-02-09T19:32:27.918Z,95737.781
2019-02-09T19:32:35.822Z,95738.109
2019-02-09T19:32:43.752Z,95737.312
2019-02-09T19:32:51.675Z,95735.765
2019-02-09T19:32:59.619Z,95735.929
2019-02-09T19:33:07.555Z,95737.031
2019-02-09T19:33:15.488Z,95738.359
2019-02-09T19:33:23.434Z,95736.953
2019-02-09T19:33:31.360Z,95736.64
2019-02-09T19:33:39.341Z,95734.328
2019-02-09T19:33:47.267Z,95734.601
2019-02-09T19:33:55.207Z,95734.125
2019-02-09T19:34:03.156Z,95734.71
2019-02-09T19:34:11.057Z,95734.156
2019-02-09T19:34:19.034Z,95734.328
2019-02-09T19:34:26.946Z,95733.984
2019-02-09T19:34:35.914Z,95731.671
2019-02-09T19:34:43.804Z,95734.507
2019-02-09T19:34:52.684Z,95734.921
2019-02-09T19:35:40.313Z,95728.914
2019-02-09T19:35:48.302Z,95728.875
2019-02-09T19:35:56.183Z,95732.546
2019-02-09T19:36:04.140Z,95733.398
2019-02-09T19:36:13.040Z,95735.078
2019-02-09T19:36:20.931Z,95734.328
2019-02-09T19:36:28.850Z,95728.609
2019-02-09T19:36:37.719Z,95732.531
2019-02-09T19:36:45.619Z,95728.796
2019-02-09T19:36:53.510Z,95730.289
2019-02-09T19:37:01.399Z,95731.062
2019-02-09T19:37:09.286Z,95730.148
2019-02-09T19:37:17.258Z,95728.656
2019-02-09T19:37:25.191Z,95731.39
2019-02-09T19:37:34.059Z,95726.359
2019-02-09T19:37:42.068Z,95730.164
2019-02-09T19:37:50.034Z,95731.156
2019-02-09T19:37:58.941Z,95732.257
2019-02-09T19:38:06.847Z,95728.695
2019-02-09T19:38:14.750Z,95733.828
2019-02-09T19:38:23.671Z,95732.671
2019-02-09T19:38:31.556Z,95733.937
2019-02-09T19:38:39.424Z,95733.437
2019-02-09T19:38:48.365Z,95731.695
2019-02-09T19:38:56.263Z,95731.281
2019-02-09T19:39:04.174Z,95736.109
2019-02-09T19:39:12.074Z,95733.453
2019-02-09T19:39:19.960Z,95734.031
2019-02-09T19:39:27.866Z,95732.046
2019-02-09T19:39:35.768Z,95729.828
2019-02-09T19:39:44.663Z,95732.812
2019-02-09T19:39:52.647Z,95732.226
2019-02-09T19:40:00.630Z,95731.234
2019-02-09T19:40:08.556Z,95730.648
2019-02-09T19:40:16.478Z,95731.585
2019-02-09T19:40:24.397Z,95734.89
2019-02-09T19:40:32.324Z,95734.234
2019-02-09T19:40:40.244Z,95734.726
2019-02-09T19:40:48.164Z,95731.492
2019-02-09T19:40:56.093Z,95734.5
2019-02-09T19:41:05.017Z,95733.593
2019-02-09T19:41:12.900Z,95734.75
2019-02-09T19:41:20.782Z,95734.75
2019-02-09T19:41:28.704Z,95730.187
2019-02-09T19:41:36.588Z,95731.593
2019-02-09T19:41:44.510Z,95733.421
2019-02-09T19:41:52.404Z,95729.265
2019-02-09T19:42:00.321Z,95732.109
2019-02-09T19:42:08.203Z,95731.281
2019-02-09T19:42:17.080Z,95728.296
2019-02-09T19:42:24.993Z,95727.562
2019-02-09T19:42:32.899Z,95733.109
2019-02-09T19:42:40.781Z,95730.953
2019-02-09T19:42:48.773Z,95727.804
2019-02-09T19:42:56.658Z,95730.289
2019-02-09T19:43:05.560Z,95731.359
2019-02-09T19:43:13.451Z,95730.453
2019-02-09T19:43:21.406Z,95730.289
2019-02-09T19:43:29.323Z,95731.859
2019-02-09T19:43:37.217Z,95731.445
2019-02-09T19:43:45.142Z,95727.882
2019-02-09T19:43:53.166Z,95729.953
2019-02-09T19:44:01.050Z,95731.695
2019-02-09T19:44:08.988Z,95733.265
2019-02-09T19:44:16.874Z,95731.445
2019-02-09T19:44:24.743Z,95732.031
2019-02-09T19:44:32.637Z,95727.132
2019-02-09T19:44:40.540Z,95732.773
2019-02-09T19:44:48.426Z,95732.281
2019-02-09T19:44:56.362Z,95730.453
2019-02-09T19:45:04.254Z,95728.218
2019-02-09T19:45:12.166Z,95729.125
2019-02-09T19:45:20.051Z,95730.289
2019-02-09T19:45:27.929Z,95729.953
2019-02-09T19:45:35.799Z,95729.46
2019-02-09T19:45:43.701Z,95726.562
2019-02-09T19:45:51.604Z,95730.21
2019-02-09T19:45:59.518Z,95727.39
2019-02-09T19:46:07.398Z,95728.89
2019-02-09T19:46:16.262Z,95727.562
2019-02-09T19:46:24.168Z,95723.25
2019-02-09T19:46:32.087Z,95723.718
2019-02-09T19:46:39.996Z,95725.046
2019-02-09T19:46:47.860Z,95730.015
2019-02-09T19:46:55.758Z,95727.625
2019-02-09T19:47:03.608Z,95728.445
2019-02-09T19:47:11.530Z,95726.539
2019-02-09T19:47:19.496Z,95730.187
2019-02-09T19:47:27.428Z,95728.281
2019-02-09T19:47:35.297Z,95725.632
2019-02-09T19:47:43.208Z,95726.687
2019-02-09T19:47:51.206Z,95723.125
2019-02-09T19:47:59.182Z,95725.937
2019-02-09T19:48:07.067Z,95725.437
2019-02-09T19:48:15.969Z,95727.687
2019-02-09T19:48:23.861Z,95726.765
2019-02-09T19:48:31.757Z,95726.359
2019-02-09T19:48:39.679Z,95722.625
2019-02-09T19:48:47.620Z,95725.445
2019-02-09T19:48:55.608Z,95719.656
2019-02-09T19:49:03.488Z,95723.46
2019-02-09T19:49:11.458Z,95722.968
2019-02-09T19:49:20.493Z,95724.437
2019-02-09T19:49:28.590Z,95722.109
2019-02-09T19:49:36.436Z,95722.687
2019-02-09T19:49:44.360Z,95721.281
2019-02-09T19:49:52.271Z,95726.843
2019-02-09T19:50:00.232Z,95725.679
2019-02-09T19:50:08.546Z,95724.359
2019-02-09T19:50:17.398Z,95719.882
2019-02-09T19:50:25.303Z,95722.953
2019-02-09T19:50:33.150Z,95723.445
2019-02-09T19:50:41.083Z,95725.992
2019-02-09T19:50:48.998Z,95722.265
2019-02-09T19:50:57.880Z,95722.343
2019-02-09T19:51:05.784Z,95724.078
2019-02-09T19:51:13.714Z,95723.921
2019-02-09T19:51:22.603Z,95722.101
2019-02-09T19:51:30.512Z,95719.953
2019-02-09T19:51:39.379Z,95722.601
2019-02-09T19:51:48.279Z,95721.273
2019-02-09T19:51:56.178Z,95724.265
2019-02-09T19:52:04.053Z,95720.921
2019-02-09T19:52:13.958Z,95723.734
2019-02-09T19:52:21.849Z,95722.828
2019-02-09T19:52:29.754Z,95721.085
2019-02-09T19:52:38.666Z,95721.585
2019-02-09T19:52:46.641Z,95722
2019-02-09T19:52:55.540Z,95723.078
2019-02-09T19:53:03.480Z,95721.5
2019-02-09T19:53:11.361Z,95721.75
2019-02-09T19:53:20.249Z,95719.906
2019-02-09T19:53:29.128Z,95717.585
2019-02-09T19:53:37.064Z,95721.234
2019-02-09T19:53:45.971Z,95718.906
2019-02-09T19:53:53.881Z,95720.406
2019-02-09T19:54:01.793Z,95719.906
2019-02-09T19:54:09.679Z,95720.734
2019-02-09T19:54:18.214Z,95716.343
2019-02-09T19:54:26.120Z,95720.578
2019-02-09T19:54:34.077Z,95719.5
2019-02-09T19:54:41.958Z,95721.656
2019-02-09T19:54:49.837Z,95720.742
2019-02-09T19:54:57.710Z,95718.671
2019-02-09T19:55:05.612Z,95719.578
2019-02-09T19:55:13.536Z,95721.218
2019-02-09T19:55:22.406Z,95720.828
2019-02-09T19:55:30.297Z,95718.89
2019-02-09T19:55:38.308Z,95719.554
2019-02-09T19:55:46.377Z,95719.89
2019-02-09T19:55:54.251Z,95717.578
2019-02-09T19:56:02.287Z,95717.906
2019-02-09T19:56:10.168Z,95720.468
2019-02-09T19:56:19.053Z,95720.718
2019-02-09T19:56:26.929Z,95721.054
2019-02-09T19:56:34.843Z,95717.906
2019-02-09T19:56:43.728Z,95718.57
2019-02-09T19:56:51.796Z,95720.359
2019-02-09T19:56:59.774Z,95721.937
2019-02-09T19:57:07.671Z,95722.515
2019-02-09T19:57:15.544Z,95720.945
2019-02-09T19:57:23.442Z,95718.875
2019-02-09T19:57:31.432Z,95714.234
2019-02-09T19:57:39.401Z,95722.187
2019-02-09T19:57:48.312Z,95723.679
2019-02-09T19:57:56.395Z,95725.343
2019-02-09T19:58:04.313Z,95721.695
2019-02-09T19:58:12.200Z,95721.695
2019-02-09T19:58:20.072Z,95720.531
2019-02-09T19:58:27.945Z,95720.671
2019-02-09T19:58:35.837Z,95719.351
2019-02-09T19:58:43.829Z,95717.531
2019-02-09T19:58:51.713Z,95720.343
2019-02-09T19:58:59.625Z,95718.937
2019-02-09T19:59:07.512Z,95719.687
2019-02-09T19:59:15.483Z,95716.289
2019-02-09T19:59:23.400Z,95720.679
2019-02-09T19:59:31.350Z,95721.015
2019-02-09T19:59:40.207Z,95720.187
2019-02-09T19:59:48.096Z,95723.828
2019-02-09T19:59:56.119Z,95717.507
2019-02-09T20:00:03.938Z,95716.015
2019-02-09T20:00:11.864Z,95718.835
2019-02-09T20:00:19.772Z,95719.414
2019-02-09T20:00:27.670Z,95718.171
2019-02-09T20:00:35.545Z,95730.109
2019-02-09T20:00:43.474Z,95728.453
2019-02-09T20:00:51.423Z,95731.593
2019-02-09T20:00:59.413Z,95731.593
2019-02-09T20:01:07.375Z,95731.437
2019-02-09T20:01:15.354Z,95731.765
2019-02-09T20:01:23.449Z,95729.25
2019-02-09T20:01:32.677Z,95729.578
2019-02-09T20:01:40.647Z,95729.328
2019-02-09T20:01:48.579Z,95728.921
2019-02-09T20:01:56.558Z,95728.179
2019-02-09T20:02:05.386Z,95731.984
2019-02-09T20:02:13.382Z,95728.671
2019-02-09T20:02:21.311Z,95732.625
2019-02-09T20:02:30.228Z,95728.671
2019-02-09T20:02:38.196Z,95728.984
2019-02-09T20:02:46.048Z,95729.062
2019-02-09T20:02:53.987Z,95730.468
2019-02-09T20:03:01.880Z,95731.64
2019-02-09T20:03:09.767Z,95731.062
2019-02-09T20:03:17.751Z,95730.562
2019-02-09T20:03:25.703Z,95729.562
2019-02-09T20:03:33.693Z,95730.398
2019-02-09T20:03:41.616Z,95730.312
2019-02-09T20:03:50.515Z,95732.851
2019-02-09T20:03:59.381Z,95731.445
2019-02-09T20:04:07.341Z,95732.773
2019-02-09T20:04:15.229Z,95733.765
2019-02-09T20:04:23.122Z,95732.531
2019-02-09T20:04:31.039Z,95735.671
2019-02-09T20:04:38.985Z,95731.5
2019-02-09T20:04:46.910Z,95737.75
2019-02-09T20:04:54.808Z,95733.656
2019-02-09T20:05:02.727Z,95735.984
2019-02-09T20:05:10.674Z,95737.804
2019-02-09T20:05:21.536Z,95740.781
2019-02-09T20:05:29.437Z,95739.593
2019-02-09T20:05:37.356Z,95738.359
2019-02-09T20:05:45.272Z,95738.765
2019-02-09T20:05:53.234Z,95736.531
2019-02-09T20:06:01.142Z,95735.296
2019-02-09T20:06:09.087Z,95739.234
2019-02-09T20:06:16.978Z,95735.234
2019-02-09T20:06:24.880Z,95738.96
2019-02-09T20:06:32.782Z,95739.953
2019-02-09T20:06:40.730Z,95740.953
2019-02-09T20:06:48.720Z,95740.625
2019-02-09T20:06:56.629Z,95743.515
2019-02-09T20:07:04.532Z,95743.515
2019-02-09T20:07:12.442Z,95740.703
2019-02-09T20:07:20.339Z,95742.195
2019-02-09T20:07:29.228Z,95743.742
2019-02-09T20:07:38.136Z,95742.828
2019-02-09T20:07:46.041Z,95746.554
2019-02-09T20:07:55.452Z,95744.898
2019-02-09T20:08:02.796Z,95744.484
2019-02-09T20:08:10.695Z,95741.726
2019-02-09T20:08:18.620Z,95741.89
2019-02-09T20:08:26.581Z,95741.14
2019-02-09T20:08:34.452Z,95741.64
2019-02-09T20:08:42.346Z,95740.32
2019-02-09T20:08:50.262Z,95740.234
2019-02-09T20:08:58.162Z,95741.453
2019-02-09T20:09:06.056Z,95740.203
2019-02-09T20:09:13.947Z,95741.609
2019-02-09T20:09:21.880Z,95744.179
2019-02-09T20:09:29.929Z,95741.453
2019-02-09T20:09:39.164Z,95742.609
2019-02-09T20:09:47.254Z,95740.125
2019-02-09T20:09:56.123Z,95741.203
2019-02-09T20:10:04.822Z,95741.75
2019-02-09T20:10:12.716Z,95740.875
2019-02-09T20:10:20.760Z,95742.328
2019-02-09T20:10:28.675Z,95740.015
2019-02-09T20:10:36.675Z,95739.187
2019-02-09T20:10:45.526Z,95742.906
2019-02-09T20:10:53.502Z,95742.75
2019-02-09T20:11:01.521Z,95744.656
2019-02-09T20:11:10.474Z,95742
2019-02-09T20:11:18.420Z,95741.343
2019-02-09T20:11:26.499Z,95742.796
2019-02-09T20:11:34.400Z,95741.89
2019-02-09T20:11:42.294Z,95740.234
2019-02-09T20:11:50.438Z,95741.726
2019-02-09T20:11:58.351Z,95744.289
2019-02-09T20:12:06.307Z,95746.859
2019-02-09T20:12:14.193Z,95743.218
2019-02-09T20:12:23.181Z,95746.773
2019-02-09T20:12:31.177Z,95746.687
2019-02-09T20:12:39.159Z,95748.343
2019-02-09T20:12:47.216Z,95742.109
2019-02-09T20:12:55.120Z,95745.578
2019-02-09T20:13:03.986Z,95745.171
2019-02-09T20:13:12.001Z,95746.164
2019-02-09T20:13:21.014Z,95744.015
2019-02-09T20:13:29.059Z,95744.507
2019-02-09T20:13:37.019Z,95743.843
2019-02-09T20:13:44.981Z,95743.601
2019-02-09T20:13:53.975Z,95745.828
2019-02-09T20:14:01.934Z,95744.89
2019-02-09T20:14:09.898Z,95744.64
2019-02-09T20:14:17.885Z,95744.234
2019-02-09T20:14:26.865Z,95746.14
2019-02-09T20:14:34.817Z,95745.14
2019-02-09T20:14:42.794Z,95740.921
2019-02-09T20:14:50.767Z,95744.234
2019-02-09T20:14:58.749Z,95744.484
2019-02-09T20:15:06.662Z,95744.562
2019-02-09T20:15:14.581Z,95744.39
2019-02-09T20:15:22.537Z,95745.968
2019-02-09T20:15:30.485Z,95744.859
2019-02-09T20:15:39.439Z,95743.156
2019-02-09T20:15:48.393Z,95744.031
2019-02-09T20:15:56.379Z,95743.289
2019-02-09T20:16:04.489Z,95746.265
2019-02-09T20:16:12.499Z,95742.546
2019-02-09T20:16:21.508Z,95744.117
2019-02-09T20:16:30.485Z,95743.953
2019-02-09T20:16:38.355Z,95742.546
2019-02-09T20:16:46.289Z,95740.39
2019-02-09T20:16:54.237Z,95742.125
2019-02-09T20:17:02.236Z,95741.468
2019-02-09T20:17:10.130Z,95738.21
2019-02-09T20:17:18.073Z,95739.203
2019-02-09T20:17:27.057Z,95740.195
2019-02-09T20:17:35.042Z,95740.609
2019-02-09T20:17:43.021Z,95738.953
2019-02-09T20:17:50.962Z,95738.703
2019-02-09T20:17:58.901Z,95738.953
2019-02-09T20:18:06.896Z,95737.96
2019-02-09T20:18:14.894Z,95741.265
2019-02-09T20:18:22.876Z,95738.375
2019-02-09T20:18:30.824Z,95738.781
2019-02-09T20:18:38.896Z,95740.156
2019-02-09T20:18:46.830Z,95736.851
2019-02-09T20:18:55.827Z,95740.406
2019-02-09T20:19:03.887Z,95738.421
2019-02-09T20:19:11.831Z,95740.25
2019-02-09T20:19:19.812Z,95740.406
2019-02-09T20:19:27.810Z,95737.515
2019-02-09T20:19:35.734Z,95736.601
2019-02-09T20:19:43.678Z,95739.75
2019-02-09T20:19:51.586Z,95736.851
2019-02-09T20:19:59.530Z,95738.343
2019-02-09T20:20:07.544Z,95739.25
2019-02-09T20:20:15.449Z,95741.234
2019-02-09T20:20:23.360Z,95739.664
2019-02-09T20:20:31.257Z,95738.968
2019-02-09T20:20:46.388Z,95738.89
2019-02-09T20:20:51.136Z,95739.062
2019-02-09T20:20:59.103Z,95742.703
2019-02-09T20:21:07.049Z,95743.609
2019-02-09T20:21:15.044Z,95740.46
2019-02-09T20:21:23.001Z,95740.296
2019-02-09T20:21:30.931Z,95739.468
2019-02-09T20:21:38.884Z,95740.789
2019-02-09T20:21:46.810Z,95739.546
2019-02-09T20:21:54.765Z,95740.375
2019-02-09T20:22:02.679Z,95741.703
2019-02-09T20:22:10.659Z,95740.125
2019-02-09T20:22:18.569Z,95743.359
2019-02-09T20:22:26.504Z,95743.609
2019-02-09T20:22:35.625Z,95746.171
2019-02-09T20:22:43.399Z,95743.515
2019-02-09T20:22:51.351Z,95739.109
2019-02-09T20:22:59.287Z,95737.703
2019-02-09T20:23:07.237Z,95738.39
2019-02-09T20:23:15.131Z,95736.539
2019-02-09T20:23:23.063Z,95733.148
2019-02-09T20:23:31.029Z,95734.968
2019-02-09T20:23:38.971Z,95739.015
2019-02-09T20:23:47.897Z,95736.781
2019-02-09T20:23:55.917Z,95735.218
2019-02-09T20:24:03.807Z,95737.031
2019-02-09T20:24:11.761Z,95735.546
2019-02-09T20:24:19.734Z,95735.625
2019-02-09T20:24:27.636Z,95735.875
2019-02-09T20:24:36.534Z,95738.859
2019-02-09T20:24:44.534Z,95738.937
2019-02-09T20:24:53.424Z,95739.101
2019-02-09T20:25:01.344Z,95737.695
2019-02-09T20:25:09.245Z,95737.859
2019-02-09T20:25:17.150Z,95739.515
2019-02-09T20:25:25.048Z,95740.171
2019-02-09T20:25:32.928Z,95742.828
2019-02-09T20:25:40.913Z,95742.546
2019-02-09T20:25:48.856Z,95740.14
2019-02-09T20:25:56.771Z,95744.125
2019-02-09T20:26:04.705Z,95742.375
2019-02-09T20:26:12.565Z,95743.375
2019-02-09T20:26:20.469Z,95745.937
2019-02-09T20:26:28.397Z,95742.132
2019-02-09T20:26:36.343Z,95745.109
2019-02-09T20:26:45.227Z,95740.062
2019-02-09T20:26:53.169Z,95744.367
2019-02-09T20:27:01.069Z,95742.546
2019-02-09T20:27:10.037Z,95743.781
2019-02-09T20:27:18.969Z,95740.718
2019-02-09T20:27:26.866Z,95742.71
2019-02-09T20:27:34.777Z,95739.07
2019-02-09T20:27:42.713Z,95740.64
2019-02-09T20:27:50.614Z,95740.968
2019-02-09T20:27:58.550Z,95744.609
2019-02-09T20:28:07.531Z,95744.687
2019-02-09T20:28:15.430Z,95742.625
2019-02-09T20:28:23.363Z,95743.625
2019-02-09T20:28:31.287Z,95741.601
2019-02-09T20:28:39.187Z,95746.07
2019-02-09T20:28:47.667Z,95742.593
2019-02-09T20:28:55.129Z,95744.335
2019-02-09T20:29:04.132Z,95742.179
2019-02-09T20:29:12.069Z,95746.593
2019-02-09T20:29:19.947Z,95743.593
2019-02-09T20:29:27.851Z,95744.578
2019-02-09T20:29:35.795Z,95743.343
2019-02-09T20:29:43.795Z,95744.328
2019-02-09T20:29:51.806Z,95742.757
2019-02-09T20:29:59.716Z,95741.265
2019-02-09T20:30:08.706Z,95742.093
2019-02-09T20:30:17.766Z,95739.453
2019-02-09T20:30:25.989Z,95738.375
2019-02-09T20:30:34.124Z,95739.453
2019-02-09T20:30:42.333Z,95740.437
2019-02-09T20:30:50.617Z,95739.945
2019-02-09T20:30:58.851Z,95742.265
2019-02-09T20:31:07.192Z,95739.25
2019-02-09T20:31:15.183Z,95742.265
2019-02-09T20:31:24.585Z,95743
2019-02-09T20:31:32.915Z,95744.828
2019-02-09T20:31:42.187Z,95739.281
2019-02-09T20:31:51.377Z,95742.39
2019-02-09T20:31:59.617Z,95744.906
2019-02-09T20:32:07.823Z,95738.007
2019-02-09T20:32:16.812Z,95741.265
2019-02-09T20:32:24.904Z,95739.656
2019-02-09T20:32:32.955Z,95742.64
2019-02-09T20:32:40.883Z,95739.414
2019-02-09T20:32:49.001Z,95749.179
2019-02-09T20:32:57.910Z,95741.07
2019-02-09T20:33:05.870Z,95740.984
2019-02-09T20:33:14.012Z,95742.726
2019-02-09T20:33:21.892Z,95742.726
2019-02-09T20:33:29.810Z,95744.546
2019-02-09T20:33:37.726Z,95742.89
2019-02-09T20:33:45.677Z,95743.218
2019-02-09T20:33:55.566Z,95742.64
2019-02-09T20:34:03.431Z,95741.234
2019-02-09T20:34:11.347Z,95738.171
2019-02-09T20:34:19.235Z,95745.453
2019-02-09T20:34:27.182Z,95741.734
2019-02-09T20:34:35.068Z,95741.89
2019-02-09T20:34:43.018Z,95746.109
2019-02-09T20:34:50.936Z,95743.632
2019-02-09T20:34:58.901Z,95744.953
2019-02-09T20:35:06.859Z,95744.125
2019-02-09T20:35:14.791Z,95745.031
2019-02-09T20:35:27.894Z,95746.609
2019-02-09T20:35:36.518Z,95746
2019-02-09T20:35:44.430Z,95748.343
2019-02-09T20:35:52.338Z,95746.164
2019-02-09T20:36:00.293Z,95745.671
2019-02-09T20:36:08.244Z,95748.484
2019-02-09T20:36:16.133Z,95748.593
2019-02-09T20:36:24.022Z,95748.648
2019-02-09T20:36:31.945Z,95748.515
2019-02-09T20:36:40.811Z,95750.382
2019-02-09T20:36:48.718Z,95751.546
2019-02-09T20:36:56.621Z,95751.57
2019-02-09T20:37:04.536Z,95748.484
2019-02-09T20:37:12.417Z,95750.468
2019-02-09T20:37:20.315Z,95747.984
2019-02-09T20:37:28.218Z,95750.632
2019-02-09T20:37:36.155Z,95746.109
2019-02-09T20:37:44.074Z,95747.984
2019-02-09T20:37:52.981Z,95740.617
2019-02-09T20:38:00.885Z,95743.515
2019-02-09T20:38:08.778Z,95744.421
2019-02-09T20:38:16.679Z,95740.867
2019-02-09T20:38:24.603Z,95743.671
2019-02-09T20:38:33.456Z,95742.109
2019-02-09T20:38:41.341Z,95743.921
2019-02-09T20:38:49.259Z,95743.015
2019-02-09T20:39:04.307Z,95741.695
2019-02-09T20:39:08.994Z,95743.015
2019-02-09T20:39:16.916Z,95744.171
2019-02-09T20:39:24.803Z,95742.765
2019-02-09T20:39:32.710Z,95744.921
2019-02-09T20:39:40.595Z,95737.804
2019-02-09T20:39:49.541Z,95742.937
2019-02-09T20:39:57.439Z,95740.335
2019-02-09T20:40:05.369Z,95743.484
2019-02-09T20:40:13.262Z,95742.765
2019-02-09T20:40:21.146Z,95744.343
2019-02-09T20:40:29.037Z,95742.328
2019-02-09T20:40:36.928Z,95742.484
2019-02-09T20:40:44.830Z,95742.812
2019-02-09T20:40:53.732Z,95744.75
2019-02-09T20:41:01.658Z,95737.687
2019-02-09T20:41:09.569Z,95738.687
2019-02-09T20:41:17.437Z,95735.203
2019-02-09T20:41:25.349Z,95741.656
2019-02-09T20:41:33.306Z,95738.929
2019-02-09T20:41:41.239Z,95740.835
2019-02-09T20:41:49.233Z,95735.203
2019-02-09T20:41:57.132Z,95735.703
2019-02-09T20:42:05.029Z,95736.203
2019-02-09T20:42:13.947Z,95731.07
2019-02-09T20:42:21.847Z,95728.75
2019-02-09T20:42:29.742Z,95727.921
2019-02-09T20:42:37.646Z,95732.718
2019-02-09T20:42:45.588Z,95725.773
2019-02-09T20:43:01.473Z,95728.921
2019-02-09T20:43:06.388Z,95727.515
2019-02-09T20:43:14.344Z,95724.781
2019-02-09T20:43:22.284Z,95728.093
2019-02-09T20:43:30.211Z,95725.437
2019-02-09T20:43:38.112Z,95726.515
2019-02-09T20:43:46.001Z,95725.773
2019-02-09T20:43:53.894Z,95724.367
2019-02-09T20:44:01.825Z,95725.773
2019-02-09T20:44:09.706Z,95724.609
2019-02-09T20:44:18.705Z,95721.718
2019-02-09T20:44:26.545Z,95719.078
2019-02-09T20:44:34.443Z,95720.14
2019-02-09T20:44:42.442Z,95717.578
2019-02-09T20:44:50.469Z,95717.5
2019-02-09T20:44:59.402Z,95716.671
2019-02-09T20:45:07.351Z,95714.078
2019-02-09T20:45:15.345Z,95711.593
2019-02-09T20:45:23.299Z,95714.437
2019-02-09T20:45:31.290Z,95714.851
2019-02-09T20:45:40.205Z,95716.007
2019-02-09T20:45:48.220Z,95714.515
2019-02-09T20:45:56.136Z,95717.828
2019-02-09T20:46:04.101Z,95713.031
2019-02-09T20:46:12.024Z,95712.039
2019-02-09T20:46:19.934Z,95712.921
2019-02-09T20:46:27.934Z,95712.585
2019-02-09T20:46:35.869Z,95711.546
2019-02-09T20:46:43.773Z,95712.671
2019-02-09T20:46:51.694Z,95711.375
2019-02-09T20:46:59.644Z,95712.671
2019-02-09T20:47:07.605Z,95713.414
2019-02-09T20:47:16.591Z,95713.992
2019-02-09T20:47:24.550Z,95715.312
2019-02-09T20:47:32.521Z,95713.742
2019-02-09T20:47:47.447Z,95712.5
2019-02-09T20:47:53.442Z,95715.234
2019-02-09T20:48:01.376Z,95715.812
2019-02-09T20:48:09.299Z,95713.742
2019-02-09T20:48:18.198Z,95712.093
2019-02-09T20:48:26.147Z,95715.64
2019-02-09T20:48:35.098Z,95718.21
2019-02-09T20:48:43.006Z,95717.14
2019-02-09T20:48:50.995Z,95717.382
2019-02-09T20:48:58.913Z,95715.39
2019-02-09T20:49:06.843Z,95716.89
2019-02-09T20:49:14.765Z,95718.21
2019-02-09T20:49:22.811Z,95715.976
2019-02-09T20:49:30.684Z,95714.156
2019-02-09T20:49:38.614Z,95713.492
2019-02-09T20:49:46.614Z,95714.898
2019-02-09T20:49:54.577Z,95714.078
2019-02-09T20:50:02.503Z,95714.156
2019-02-09T20:50:10.530Z,95715.39
2019-02-09T20:50:18.446Z,95714.812
2019-02-09T20:50:26.376Z,95713.164
2019-02-09T20:50:34.259Z,95712.585
2019-02-09T20:50:42.183Z,95711.843
2019-02-09T20:50:50.114Z,95707.867
2019-02-09T20:50:58.059Z,95711.843
2019-02-09T20:51:06.006Z,95710.015
2019-02-09T20:51:14.069Z,95713.656
2019-02-09T20:51:22.103Z,95711.593
2019-02-09T20:51:30.082Z,95714.484
2019-02-09T20:51:38.032Z,95713.656
2019-02-09T20:51:45.998Z,95710.734
2019-02-09T20:51:53.930Z,95714.484
2019-02-09T20:52:01.956Z,95713.984
2019-02-09T20:52:10.918Z,95713.078
2019-02-09T20:52:18.834Z,95711.343
2019-02-09T20:52:26.840Z,95711.835
2019-02-09T20:52:34.765Z,95712
2019-02-09T20:52:43.744Z,95710.343
2019-02-09T20:52:51.701Z,95712
2019-02-09T20:52:59.641Z,95712.085
2019-02-09T20:53:07.634Z,95715.39
2019-02-09T20:53:15.588Z,95710.593
2019-02-09T20:53:23.617Z,95712.671
2019-02-09T20:53:31.537Z,95713.296
2019-02-09T20:53:39.452Z,95713.828
2019-02-09T20:53:47.478Z,95716.062
2019-02-09T20:53:55.492Z,95708.25
2019-02-09T20:54:03.462Z,95713.625
2019-02-09T20:54:11.375Z,95711.062
2019-02-09T20:54:19.352Z,95709.82